createdAt,value
2022-09-28T00:00:48.210Z,85.26
2022-09-28T00:06:10.730Z,85.67
2022-09-28T00:11:15.937Z,86.15
2022-09-28T00:16:24.613Z,86.68
2022-09-28T00:21:32.499Z,87.11
2022-09-28T00:26:36.210Z,87.59
2022-09-28T00:31:39.924Z,87.76
2022-09-28T00:36:47.021Z,87.95
2022-09-28T00:41:52.107Z,88.41
2022-09-28T00:47:20.386Z,88.04
2022-09-28T00:53:18.627Z,88.00
2022-09-28T00:58:32.376Z,87.89
2022-09-28T01:03:38.793Z,87.78
2022-09-28T01:08:45.045Z,87.91
2022-09-28T01:13:54.803Z,87.77
2022-09-28T01:19:43.045Z,87.06
2022-09-28T01:24:49.611Z,85.96
2022-09-28T01:30:16.026Z,85.78
2022-09-28T01:35:35.935Z,85.60
2022-09-28T01:40:41.935Z,85.21
2022-09-28T01:45:51.719Z,85.24
2022-09-28T01:51:04.196Z,85.46
2022-09-28T01:56:26.668Z,85.78
2022-09-28T02:01:44.430Z,85.90
2022-09-28T02:07:03.036Z,85.90
2022-09-28T02:12:20.826Z,85.78
2022-09-28T02:17:24.817Z,85.92
2022-09-28T02:22:34.988Z,86.35
2022-09-28T02:28:05.845Z,86.08
2022-09-28T02:33:28.926Z,85.72
2022-09-28T02:38:33.368Z,85.76
2022-09-28T02:44:00.167Z,85.88
2022-09-28T02:49:21.456Z,86.11
2022-09-28T02:55:14.228Z,86.15
2022-09-28T03:00:24.417Z,86.11
2022-09-28T03:06:00.703Z,86.14
2022-09-28T03:11:35.474Z,86.40
2022-09-28T03:16:44.842Z,86.44
2022-09-28T03:21:48.716Z,86.60
2022-09-28T03:26:52.716Z,86.71
2022-09-28T03:31:56.926Z,86.68
2022-09-28T03:37:00.906Z,86.60
2022-09-28T03:42:05.197Z,86.55
2022-09-28T03:47:09.935Z,86.65
2022-09-28T03:52:15.172Z,86.70
2022-09-28T03:57:19.170Z,86.75
2022-09-28T04:02:23.423Z,86.76
2022-09-28T04:07:30.878Z,86.88
2022-09-28T04:12:35.178Z,86.76
2022-09-28T04:17:40.347Z,86.85
2022-09-28T04:22:44.967Z,87.00
2022-09-28T04:28:08.951Z,87.04
2022-09-28T04:33:12.674Z,87.16
2022-09-28T04:38:23.503Z,87.30
2022-09-28T04:43:39.986Z,87.50
2022-09-28T04:48:44.007Z,87.61
2022-09-28T04:53:48.136Z,87.59
2022-09-28T04:58:52.976Z,87.36
2022-09-28T05:03:57.355Z,87.29
2022-09-28T05:09:01.762Z,87.50
2022-09-28T05:14:06.615Z,87.66
2022-09-28T05:19:12.146Z,87.64
2022-09-28T05:24:16.206Z,87.51
2022-09-28T05:29:20.426Z,87.44
2022-09-28T05:34:24.265Z,87.49
2022-09-28T05:39:28.088Z,87.39
2022-09-28T05:44:32.120Z,87.35
2022-09-28T05:49:35.972Z,87.31
2022-09-28T05:54:40.064Z,87.29
2022-09-28T05:59:44.325Z,87.50
2022-09-28T06:04:50.296Z,87.57
2022-09-28T06:09:54.732Z,87.61
2022-09-28T06:14:59.357Z,87.63
2022-09-28T06:20:02.992Z,87.54
2022-09-28T06:25:08.444Z,87.60
2022-09-28T06:30:13.065Z,87.40
2022-09-28T06:35:17.144Z,87.18
2022-09-28T06:40:23.145Z,86.99
2022-09-28T06:45:29.496Z,87.04
2022-09-28T06:50:41.383Z,86.60
2022-09-28T06:55:50.611Z,86.35
2022-09-28T07:00:59.812Z,86.26
2022-09-28T07:06:05.004Z,86.22
2022-09-28T07:11:09.195Z,86.23
2022-09-28T07:16:13.579Z,86.04
2022-09-28T07:21:27.786Z,86.40
2022-09-28T07:26:34.383Z,86.41
2022-09-28T07:31:38.915Z,86.17
2022-09-28T07:36:42.776Z,86.44
2022-09-28T07:41:46.791Z,86.69
2022-09-28T07:46:51.109Z,86.91
2022-09-28T07:51:54.958Z,86.72
2022-09-28T07:56:59.268Z,86.61
2022-09-28T08:02:02.948Z,86.61
2022-09-28T08:07:12.624Z,86.66
2022-09-28T08:12:16.235Z,86.90
2022-09-28T08:17:20.002Z,86.73
2022-09-28T08:22:24.240Z,86.67
2022-09-28T08:27:28.142Z,86.71
2022-09-28T08:32:33.277Z,86.43
2022-09-28T08:37:37.155Z,86.18
2022-09-28T08:42:43.840Z,85.79
2022-09-28T08:48:29.743Z,85.43
2022-09-28T08:53:50.369Z,85.11
2022-09-28T08:59:01.192Z,84.69
2022-09-28T09:04:08.052Z,84.09
2022-09-28T09:10:04.082Z,83.83
2022-09-28T09:15:25.564Z,83.37
2022-09-28T09:21:02.623Z,83.29
2022-09-28T09:26:23.547Z,82.53
2022-09-28T09:32:32.245Z,82.47
2022-09-28T09:38:21.809Z,80.79
2022-09-28T09:43:51.230Z,79.96
2022-09-28T09:49:12.170Z,79.00
2022-09-28T09:54:45.952Z,77.38
2022-09-28T09:59:50.314Z,75.96
2022-09-28T10:05:26.420Z,74.61
2022-09-28T10:10:37.880Z,75.10
2022-09-28T10:15:46.299Z,74.86
2022-09-28T10:20:55.925Z,74.04
2022-09-28T10:26:12.423Z,74.42
2022-09-28T10:31:51.469Z,73.57
2022-09-28T10:37:12.733Z,73.38
2022-09-28T10:42:31.144Z,73.35
2022-09-28T10:47:37.045Z,74.08
2022-09-28T10:52:46.228Z,74.36
2022-09-28T10:57:50.817Z,72.47
2022-09-28T11:02:55.412Z,68.75
2022-09-28T11:08:06.027Z,65.64
2022-09-28T11:13:11.078Z,65.64
2022-09-28T11:18:34.070Z,67.25
2022-09-28T11:23:38.212Z,68.98
2022-09-28T11:28:43.538Z,70.01
2022-09-28T11:33:48.208Z,70.39
2022-09-28T11:39:19.959Z,70.24
2022-09-28T11:44:46.849Z,70.43
2022-09-28T11:49:57.924Z,69.36
2022-09-28T11:55:22.762Z,66.54
2022-09-28T12:00:29.520Z,65.08
2022-09-28T12:05:45.477Z,65.49
2022-09-28T12:11:16.164Z,64.94
2022-09-28T12:17:07.323Z,63.46
2022-09-28T12:22:25.347Z,61.84
2022-09-28T12:27:39.378Z,62.87
2022-09-28T12:33:02.650Z,63.63
2022-09-28T12:38:33.311Z,64.09
2022-09-28T12:44:29.416Z,64.64
2022-09-28T12:50:36.581Z,64.63
2022-09-28T12:55:43.049Z,64.22
2022-09-28T13:01:22.151Z,64.42
2022-09-28T13:06:45.649Z,64.72
2022-09-28T13:12:12.138Z,64.68
2022-09-28T13:17:49.008Z,63.35
2022-09-28T13:23:24.316Z,63.03
2022-09-28T13:28:30.286Z,62.90
2022-09-28T13:33:39.878Z,62.93
2022-09-28T13:38:52.700Z,61.90
2022-09-28T13:44:08.493Z,61.85
2022-09-28T13:49:47.808Z,61.58
2022-09-28T13:55:18.903Z,60.42
2022-09-28T14:00:51.648Z,59.19
2022-09-28T14:06:28.578Z,59.22
2022-09-28T14:11:37.288Z,58.94
2022-09-28T14:16:46.320Z,58.49
2022-09-28T14:21:59.277Z,59.56
2022-09-28T14:27:39.668Z,60.60
2022-09-28T14:33:23.504Z,61.83
2022-09-28T14:39:16.956Z,56.80
2022-09-28T14:44:22.200Z,49.81
2022-09-28T14:49:34.049Z,48.69
2022-09-28T14:54:53.939Z,51.61
2022-09-28T15:00:00.579Z,53.24
2022-09-28T15:05:07.443Z,53.01
2022-09-28T15:10:32.648Z,50.63
2022-09-28T15:15:41.711Z,49.83
2022-09-28T15:20:50.595Z,50.26
2022-09-28T15:25:56.126Z,50.71
2022-09-28T15:31:03.286Z,53.93
2022-09-28T15:36:10.549Z,54.67
2022-09-28T15:41:14.860Z,55.22
2022-09-28T15:46:21.869Z,55.60
2022-09-28T15:51:28.819Z,57.03
2022-09-28T15:56:33.068Z,59.58
2022-09-28T16:01:44.223Z,62.21
2022-09-28T16:07:33.975Z,64.17
2022-09-28T16:12:38.105Z,66.08
2022-09-28T16:17:42.657Z,67.81
2022-09-28T16:22:47.417Z,68.84
2022-09-28T16:27:54.660Z,70.03
2022-09-28T16:33:06.261Z,71.07
2022-09-28T16:38:14.972Z,72.15
2022-09-28T16:43:39.510Z,72.94
2022-09-28T16:48:50.370Z,73.64
2022-09-28T16:54:14.362Z,74.75
2022-09-28T16:59:19.460Z,75.57
2022-09-28T17:04:25.877Z,76.19
2022-09-28T17:09:29.788Z,77.04
2022-09-28T17:14:34.643Z,77.36
2022-09-28T17:19:38.886Z,77.89
2022-09-28T17:24:42.817Z,78.20
2022-09-28T17:29:46.944Z,78.23
2022-09-28T17:35:00.879Z,78.51
2022-09-28T17:40:28.752Z,78.73
2022-09-28T17:45:39.694Z,78.82
2022-09-28T17:50:47.757Z,78.72
2022-09-28T17:55:51.936Z,78.71
2022-09-28T18:00:55.698Z,78.93
2022-09-28T18:06:11.272Z,79.07
2022-09-28T18:11:16.229Z,79.43
2022-09-28T18:16:20.075Z,79.07
2022-09-28T18:21:24.107Z,79.00
2022-09-28T18:26:28.996Z,78.90
2022-09-28T18:31:34.045Z,78.92
2022-09-28T18:36:37.906Z,79.10
2022-09-28T18:41:42.857Z,79.18
2022-09-28T18:46:46.633Z,79.51
2022-09-28T18:51:51.318Z,79.57
2022-09-28T18:56:57.526Z,79.54
2022-09-28T19:02:02.442Z,79.71
2022-09-28T19:07:08.920Z,79.86
2022-09-28T19:12:13.875Z,79.94
2022-09-28T19:17:18.674Z,80.08
2022-09-28T19:22:22.664Z,80.04
2022-09-28T19:27:26.793Z,80.11
2022-09-28T19:32:31.019Z,80.21
2022-09-28T19:37:40.082Z,80.33
2022-09-28T19:42:44.510Z,80.31
2022-09-28T19:47:49.870Z,80.24
2022-09-28T19:52:54.015Z,80.30
2022-09-28T19:58:02.294Z,80.51
2022-09-28T20:03:06.535Z,80.91
2022-09-28T20:08:14.843Z,81.20
2022-09-28T20:13:19.738Z,81.60
2022-09-28T20:18:23.826Z,82.03
2022-09-28T20:23:27.704Z,82.03
2022-09-28T20:28:33.404Z,82.73
2022-09-28T20:33:37.814Z,83.36
2022-09-28T20:38:42.657Z,84.04
2022-09-28T20:43:48.165Z,84.98
2022-09-28T20:48:52.381Z,85.07
2022-09-28T20:54:01.454Z,84.82
2022-09-28T20:59:08.465Z,84.71
2022-09-28T21:04:13.246Z,84.54
2022-09-28T21:09:17.274Z,84.28
2022-09-28T21:14:21.815Z,84.08
2022-09-28T21:19:25.959Z,84.29
2022-09-28T21:24:29.885Z,84.47
2022-09-28T21:29:33.703Z,84.43
2022-09-28T21:34:37.728Z,84.47
2022-09-28T21:39:41.554Z,84.67
2022-09-28T21:44:45.134Z,84.58
2022-09-28T21:49:49.093Z,84.51
2022-09-28T21:54:53.037Z,84.28
2022-09-28T21:59:56.955Z,84.42
2022-09-28T22:05:00.573Z,84.51
2022-09-28T22:10:04.614Z,84.58
2022-09-28T22:15:09.514Z,84.70
2022-09-28T22:20:13.382Z,84.94
2022-09-28T22:25:18.018Z,84.96
2022-09-28T22:30:22.834Z,84.84
2022-09-28T22:35:27.006Z,84.96
2022-09-28T22:40:31.184Z,85.23
2022-09-28T22:45:34.958Z,85.46
2022-09-28T22:50:39.682Z,85.50
2022-09-28T22:55:43.316Z,85.60
2022-09-28T23:00:47.143Z,85.42
2022-09-28T23:05:56.394Z,85.40
2022-09-28T23:11:00.216Z,85.64
2022-09-28T23:16:08.815Z,85.84
2022-09-28T23:21:20.132Z,85.96
2022-09-28T23:26:28.104Z,86.07
2022-09-28T23:31:33.677Z,86.15
2022-09-28T23:36:37.608Z,86.29
2022-09-28T23:41:41.366Z,86.23
2022-09-28T23:46:45.091Z,86.10
2022-09-28T23:51:48.843Z,86.26
2022-09-28T23:56:52.864Z,86.50
